createdAt,value
2023-08-11T00:01:30.919Z,57392.56
2023-08-11T00:03:58.205Z,57413.44
2023-08-11T00:06:26.657Z,57386.28
2023-08-11T00:08:56.527Z,57432.22
2023-08-11T00:11:24.544Z,57377.94
2023-08-11T00:13:51.557Z,57386.28
2023-08-11T00:16:18.528Z,57411.34
2023-08-11T00:18:46.896Z,57398.81
2023-08-11T00:21:14.044Z,57423.88
2023-08-11T00:23:41.303Z,57415.50
2023-08-11T00:26:08.498Z,57405.06
2023-08-11T00:28:35.279Z,57411.34
2023-08-11T00:31:02.087Z,57405.06
2023-08-11T00:33:28.885Z,57430.13
2023-08-11T00:35:55.625Z,57398.81
2023-08-11T00:38:25.293Z,57384.19
2023-08-11T00:40:53.131Z,57384.19
2023-08-11T00:43:20.040Z,57398.81
2023-08-11T00:45:50.347Z,57421.78
2023-08-11T00:48:17.278Z,57446.81
2023-08-11T00:50:44.145Z,57411.34
2023-08-11T00:53:11.252Z,57403.00
2023-08-11T00:55:38.964Z,57384.19
2023-08-11T00:58:07.608Z,57400.91
2023-08-11T01:00:34.657Z,57396.72
2023-08-11T01:03:01.719Z,57421.78
2023-08-11T01:05:32.242Z,57501.09
2023-08-11T01:08:16.805Z,57415.50
2023-08-11T01:11:02.418Z,57440.56
2023-08-11T01:13:32.647Z,57425.94
2023-08-11T01:16:00.820Z,57407.16
2023-08-11T01:18:29.654Z,57413.44
2023-08-11T01:21:01.453Z,57405.06
2023-08-11T01:23:28.383Z,57375.84
2023-08-11T01:25:56.026Z,57367.50
2023-08-11T01:28:22.886Z,57413.44
2023-08-11T01:30:49.632Z,57409.25
2023-08-11T01:33:16.476Z,57428.03
2023-08-11T01:35:43.330Z,57407.16
2023-08-11T01:38:11.417Z,57430.13
2023-08-11T01:40:39.421Z,57432.22
2023-08-11T01:43:08.687Z,57430.13
2023-08-11T01:45:38.363Z,57413.44
2023-08-11T01:48:06.612Z,57430.13
2023-08-11T01:50:34.521Z,57388.38
2023-08-11T01:53:01.715Z,57419.69
2023-08-11T01:55:30.335Z,57430.13
2023-08-11T01:57:59.969Z,57405.06
2023-08-11T02:00:28.848Z,57421.78
2023-08-11T02:02:57.103Z,57369.59
2023-08-11T02:05:26.606Z,57421.78
2023-08-11T02:07:54.429Z,57451.00
2023-08-11T02:10:21.530Z,57421.78
2023-08-11T02:12:49.444Z,57430.13
2023-08-11T02:15:16.528Z,57392.56
2023-08-11T02:17:43.713Z,57392.56
2023-08-11T02:20:22.116Z,57425.94
2023-08-11T02:22:53.448Z,57413.44
2023-08-11T02:25:20.601Z,57430.13
2023-08-11T02:27:48.290Z,57409.25
2023-08-11T02:30:15.797Z,57430.13
2023-08-11T02:32:43.021Z,57392.56
2023-08-11T02:35:11.912Z,57438.47
2023-08-11T02:37:38.862Z,57388.38
2023-08-11T02:40:10.055Z,57432.22
2023-08-11T02:42:44.415Z,57421.78
2023-08-11T02:45:12.755Z,57390.47
2023-08-11T02:47:43.205Z,57409.25
2023-08-11T02:50:10.452Z,57421.78
2023-08-11T02:52:37.815Z,57419.69
2023-08-11T02:55:06.390Z,57417.59
2023-08-11T02:57:34.447Z,57392.56
2023-08-11T03:00:01.781Z,57394.63
2023-08-11T03:02:28.577Z,57398.81
2023-08-11T03:04:55.392Z,57403.00
2023-08-11T03:07:22.140Z,57423.88
2023-08-11T03:09:48.817Z,57390.47
2023-08-11T03:12:15.689Z,57375.84
2023-08-11T03:14:42.985Z,57384.19
2023-08-11T03:17:11.567Z,57413.44
2023-08-11T03:19:38.257Z,57367.50
2023-08-11T03:22:05.238Z,57440.56
2023-08-11T03:24:32.110Z,57415.50
2023-08-11T03:26:58.827Z,57438.47
2023-08-11T03:29:25.580Z,57419.69
2023-08-11T03:31:52.495Z,57377.94
2023-08-11T03:34:19.300Z,57425.94
2023-08-11T03:36:46.257Z,57417.59
2023-08-11T03:39:13.268Z,57409.25
2023-08-11T03:41:39.946Z,57367.50
2023-08-11T03:44:07.321Z,57442.66
2023-08-11T03:46:34.205Z,57388.38
2023-08-11T03:49:01.115Z,57438.47
2023-08-11T03:51:28.052Z,57400.91
2023-08-11T03:53:54.900Z,57459.34
2023-08-11T03:56:21.626Z,57388.38
2023-08-11T03:58:48.384Z,57438.47
2023-08-11T04:01:15.797Z,57377.94
2023-08-11T04:03:42.681Z,57400.91
2023-08-11T04:06:09.755Z,57384.19
2023-08-11T04:08:36.571Z,57329.94
2023-08-11T04:11:03.480Z,57354.97
2023-08-11T04:13:30.272Z,57340.38
2023-08-11T04:15:57.063Z,57377.94
2023-08-11T04:18:23.801Z,57321.59
2023-08-11T04:20:50.645Z,57340.38
2023-08-11T04:23:17.471Z,57359.16
2023-08-11T04:25:44.719Z,57319.50
2023-08-11T04:28:11.781Z,57321.59
2023-08-11T04:30:38.909Z,57319.50
2023-08-11T04:33:06.762Z,57317.41
2023-08-11T04:35:34.393Z,57384.19
2023-08-11T04:38:01.275Z,57332.03
2023-08-11T04:40:28.050Z,57332.03
2023-08-11T04:42:54.763Z,57313.22
2023-08-11T04:45:21.623Z,57288.19
2023-08-11T04:47:48.528Z,57325.75
2023-08-11T04:50:15.484Z,57327.84
2023-08-11T04:52:44.493Z,57302.81
2023-08-11T04:55:14.185Z,57323.66
2023-08-11T04:57:41.207Z,57286.09
2023-08-11T05:00:15.311Z,57327.84
2023-08-11T05:02:45.766Z,57329.94
2023-08-11T05:05:13.072Z,57296.53
2023-08-11T05:07:41.173Z,57284.00
2023-08-11T05:10:08.712Z,57309.06
2023-08-11T05:12:35.544Z,57275.66
2023-08-11T05:15:02.365Z,57298.63
2023-08-11T05:17:29.229Z,57288.19
2023-08-11T05:19:56.014Z,57336.19
2023-08-11T05:22:23.505Z,57269.41
2023-08-11T05:24:50.439Z,57252.72
2023-08-11T05:27:17.219Z,57281.94
2023-08-11T05:29:48.634Z,57325.75
2023-08-11T05:32:15.804Z,57334.09
2023-08-11T05:34:42.886Z,57357.06
2023-08-11T05:37:09.918Z,57306.97
2023-08-11T05:39:40.417Z,57298.63
2023-08-11T05:42:08.969Z,57359.16
2023-08-11T05:44:36.703Z,57273.56
2023-08-11T05:47:04.026Z,57313.22
2023-08-11T05:49:30.916Z,57263.16
2023-08-11T05:51:57.582Z,57321.59
2023-08-11T05:54:24.403Z,57323.66
2023-08-11T05:56:54.270Z,57313.22
2023-08-11T05:59:24.605Z,57275.66
2023-08-11T06:01:52.064Z,57271.50
2023-08-11T06:04:19.011Z,57290.28
2023-08-11T06:06:45.714Z,57309.06
2023-08-11T06:09:12.620Z,57296.53
2023-08-11T06:11:39.351Z,57309.06
2023-08-11T06:14:06.331Z,57275.66
2023-08-11T06:16:33.090Z,57258.97
2023-08-11T06:18:59.980Z,57309.06
2023-08-11T06:21:26.762Z,57273.56
2023-08-11T06:23:53.486Z,57292.38
2023-08-11T06:26:20.666Z,57296.53
2023-08-11T06:28:47.558Z,57315.31
2023-08-11T06:31:14.402Z,57258.97
2023-08-11T06:33:41.357Z,57309.06
2023-08-11T06:36:08.286Z,57309.06
2023-08-11T06:38:35.076Z,57319.50
2023-08-11T06:41:02.019Z,57315.31
2023-08-11T06:43:28.784Z,57348.72
2023-08-11T06:45:56.417Z,57361.25
2023-08-11T06:48:24.077Z,57265.22
2023-08-11T06:50:50.893Z,57332.03
2023-08-11T06:53:17.630Z,57315.31
2023-08-11T06:55:44.280Z,57317.41
2023-08-11T06:58:11.004Z,57294.44
2023-08-11T07:00:38.099Z,57256.88
2023-08-11T07:03:05.654Z,57329.94
2023-08-11T07:05:32.415Z,57317.41
2023-08-11T07:07:59.264Z,57302.81
2023-08-11T07:10:26.076Z,57334.09
2023-08-11T07:12:52.810Z,57281.94
2023-08-11T07:15:19.756Z,57302.81
2023-08-11T07:17:46.735Z,57292.38
2023-08-11T07:20:13.521Z,57309.06
2023-08-11T07:22:40.590Z,57292.38
2023-08-11T07:25:07.659Z,57325.75
2023-08-11T07:27:34.826Z,57319.50
2023-08-11T07:30:01.603Z,57292.38
2023-08-11T07:32:28.548Z,57311.16
2023-08-11T07:34:55.381Z,57288.19
2023-08-11T07:37:22.201Z,57323.66
2023-08-11T07:39:49.028Z,57250.63
2023-08-11T07:42:15.819Z,57284.00
2023-08-11T07:44:42.615Z,57338.28
2023-08-11T07:47:09.516Z,57296.53
2023-08-11T07:49:36.808Z,57321.59
2023-08-11T07:52:04.023Z,57304.88
2023-08-11T07:54:31.124Z,57338.28
2023-08-11T07:56:57.846Z,57329.94
2023-08-11T07:59:24.695Z,57327.84
2023-08-11T08:01:53.719Z,57340.38
2023-08-11T08:04:20.613Z,57332.03
2023-08-11T08:06:47.599Z,57281.94
2023-08-11T08:09:16.127Z,57329.94
2023-08-11T08:11:48.752Z,57298.63
2023-08-11T08:14:16.180Z,57284.00
2023-08-11T08:16:43.496Z,57336.19
2023-08-11T08:19:12.319Z,57334.09
2023-08-11T08:21:40.358Z,57346.63
2023-08-11T08:24:09.205Z,57342.47
2023-08-11T08:26:36.632Z,57277.75
2023-08-11T08:29:04.675Z,57309.06
2023-08-11T08:31:31.613Z,57300.72
2023-08-11T08:33:58.899Z,57334.09
2023-08-11T08:36:25.811Z,57288.19
2023-08-11T08:38:53.062Z,57281.94
2023-08-11T08:41:24.375Z,57296.53
2023-08-11T08:43:56.068Z,57319.50
2023-08-11T08:46:31.615Z,57338.28
2023-08-11T08:49:03.627Z,57334.09
2023-08-11T08:51:31.585Z,57342.47
2023-08-11T08:53:58.372Z,57338.28
2023-08-11T08:56:26.061Z,57294.44
2023-08-11T08:58:53.037Z,57357.06
2023-08-11T09:01:20.706Z,57317.41
2023-08-11T09:03:47.780Z,57298.63
2023-08-11T09:06:16.586Z,57263.16
2023-08-11T09:08:43.393Z,57290.28
2023-08-11T09:11:10.164Z,57350.81
2023-08-11T09:13:39.301Z,57309.06
2023-08-11T09:16:06.608Z,57311.16
2023-08-11T09:18:34.014Z,57309.06
2023-08-11T09:21:03.554Z,57338.28
2023-08-11T09:23:30.668Z,57332.03
2023-08-11T09:25:57.561Z,57357.06
2023-08-11T09:28:24.486Z,57382.13
2023-08-11T09:30:51.852Z,57338.28
2023-08-11T09:33:19.454Z,57352.91
2023-08-11T09:35:46.417Z,57380.03
2023-08-11T09:38:13.705Z,57380.03
2023-08-11T09:40:42.434Z,57392.56
2023-08-11T09:43:12.852Z,57346.63
2023-08-11T09:45:40.237Z,57346.63
2023-08-11T09:48:08.332Z,57363.31
2023-08-11T09:50:36.738Z,57340.38
2023-08-11T09:53:06.355Z,57350.81
2023-08-11T09:55:36.883Z,57315.31
2023-08-11T09:58:05.162Z,57359.16
2023-08-11T10:00:33.218Z,57294.44
2023-08-11T10:03:07.893Z,57317.41
2023-08-11T10:05:40.806Z,57288.19
2023-08-11T10:08:10.563Z,57346.63
2023-08-11T10:10:39.867Z,57329.94
2023-08-11T10:13:09.493Z,57340.38
2023-08-11T10:15:37.068Z,57348.72
2023-08-11T10:18:04.418Z,57346.63
2023-08-11T10:20:31.764Z,57348.72
2023-08-11T10:22:58.971Z,57340.38
2023-08-11T10:25:27.015Z,57334.09
2023-08-11T10:27:55.595Z,57357.06
2023-08-11T10:30:24.625Z,57342.47
2023-08-11T10:32:57.979Z,57359.16
2023-08-11T10:35:50.667Z,57325.75
2023-08-11T10:38:28.501Z,57357.06
2023-08-11T10:41:06.426Z,57342.47
2023-08-11T10:43:42.978Z,57369.59
2023-08-11T10:46:23.321Z,57386.28
2023-08-11T10:48:52.191Z,57352.91
2023-08-11T10:51:35.928Z,57346.63
2023-08-11T10:54:10.356Z,57354.97
2023-08-11T10:56:43.987Z,57375.84
2023-08-11T10:59:16.788Z,57321.59
2023-08-11T11:01:48.834Z,57361.25
2023-08-11T11:04:17.162Z,57350.81
2023-08-11T11:06:49.054Z,57405.06
2023-08-11T11:09:16.761Z,57359.16
2023-08-11T11:11:45.797Z,57350.81
2023-08-11T11:14:13.927Z,57346.63
2023-08-11T11:16:41.257Z,57336.19
2023-08-11T11:19:10.295Z,57350.81
2023-08-11T11:21:39.775Z,57348.72
2023-08-11T11:24:06.997Z,57348.72
2023-08-11T11:26:33.810Z,57336.19
2023-08-11T11:29:02.572Z,57325.75
2023-08-11T11:31:31.085Z,57336.19
2023-08-11T11:33:58.305Z,57357.06
2023-08-11T11:41:54.455Z,57327.84
2023-08-11T11:44:21.767Z,57382.13
2023-08-11T11:46:48.652Z,57348.72
2023-08-11T11:49:29.180Z,57332.03
2023-08-11T11:51:57.063Z,57342.47
2023-08-11T11:54:23.788Z,57336.19
2023-08-11T11:57:03.552Z,57350.81
2023-08-11T11:59:31.294Z,57338.28
2023-08-11T12:02:04.882Z,57329.94
2023-08-11T12:04:32.224Z,57350.81
2023-08-11T12:06:59.059Z,57350.81
2023-08-11T12:09:25.749Z,57319.50
2023-08-11T12:11:54.928Z,57342.47
2023-08-11T12:14:21.661Z,57365.41
2023-08-11T12:16:48.410Z,57367.50
2023-08-11T12:19:16.037Z,57313.22
2023-08-11T12:21:43.876Z,57367.50
2023-08-11T12:24:15.026Z,57350.81
2023-08-11T12:26:42.003Z,57346.63
2023-08-11T12:29:09.237Z,57325.75
2023-08-11T12:31:35.922Z,57329.94
2023-08-11T12:34:02.760Z,57357.06
2023-08-11T12:36:29.652Z,57332.03
2023-08-11T12:38:57.244Z,57338.28
2023-08-11T12:41:24.675Z,57359.16
2023-08-11T12:43:51.369Z,57344.53
2023-08-11T12:46:18.176Z,57346.63
2023-08-11T12:48:45.030Z,57354.97
2023-08-11T12:51:11.881Z,57359.16
2023-08-11T12:53:38.591Z,57344.53
2023-08-11T12:56:05.392Z,57329.94
2023-08-11T12:58:32.210Z,57344.53
2023-08-11T13:00:58.965Z,57325.75
2023-08-11T13:03:25.866Z,57306.97
2023-08-11T13:05:52.658Z,57371.69
2023-08-11T13:08:19.351Z,57294.44
2023-08-11T13:10:46.067Z,57292.38
2023-08-11T13:13:14.229Z,57336.19
2023-08-11T13:15:41.175Z,57342.47
2023-08-11T13:18:08.004Z,57321.59
2023-08-11T13:20:34.706Z,57306.97
2023-08-11T13:23:01.383Z,57315.31
2023-08-11T13:25:28.325Z,57338.28
2023-08-11T13:27:55.109Z,57332.03
2023-08-11T13:30:23.072Z,57350.81
2023-08-11T13:32:49.814Z,57329.94
2023-08-11T13:35:16.593Z,57309.06
2023-08-11T13:37:43.737Z,57340.38
2023-08-11T13:40:11.057Z,57334.09
2023-08-11T13:42:38.252Z,57319.50
2023-08-11T13:45:06.238Z,57344.53
2023-08-11T13:47:33.038Z,57354.97
2023-08-11T13:49:59.791Z,57311.16
2023-08-11T13:52:26.581Z,57323.66
2023-08-11T13:55:00.590Z,57317.41
2023-08-11T13:57:28.073Z,57342.47
2023-08-11T13:59:58.679Z,57300.72
2023-08-11T14:02:27.578Z,57306.97
2023-08-11T14:04:55.058Z,57369.59
2023-08-11T14:07:30.746Z,57338.28
2023-08-11T14:09:59.252Z,57336.19
2023-08-11T14:12:26.001Z,57334.09
2023-08-11T14:14:52.690Z,57336.19
2023-08-11T14:17:19.394Z,57292.38
2023-08-11T14:19:46.177Z,57332.03
2023-08-11T14:22:12.873Z,57311.16
2023-08-11T14:24:39.626Z,57323.66
2023-08-11T14:27:07.397Z,57336.19
2023-08-11T14:29:34.525Z,57340.38
2023-08-11T14:32:14.371Z,57338.28
2023-08-11T14:34:47.877Z,57365.41
2023-08-11T14:37:17.189Z,57365.41
2023-08-11T14:39:46.447Z,57317.41
2023-08-11T14:42:14.983Z,57344.53
2023-08-11T14:44:42.213Z,57306.97
2023-08-11T14:47:14.275Z,57344.53
2023-08-11T14:49:42.223Z,57350.81
2023-08-11T14:52:09.263Z,57334.09
2023-08-11T14:54:36.493Z,57327.84
2023-08-11T14:57:03.899Z,57354.97
2023-08-11T14:59:30.772Z,57365.41
2023-08-11T15:01:57.509Z,57338.28
2023-08-11T15:04:24.224Z,57340.38
2023-08-11T15:06:50.900Z,57363.31
2023-08-11T15:09:17.865Z,57329.94
2023-08-11T15:11:44.640Z,57382.13
2023-08-11T15:14:11.643Z,57325.75
2023-08-11T15:16:38.338Z,57384.19
2023-08-11T15:19:05.016Z,57348.72
2023-08-11T15:21:31.806Z,57363.31
2023-08-11T15:23:58.520Z,57309.06
2023-08-11T15:26:26.549Z,57350.81
2023-08-11T15:28:53.435Z,57313.22
2023-08-11T15:31:20.357Z,57327.84
2023-08-11T15:33:47.464Z,57325.75
2023-08-11T15:36:14.298Z,57342.47
2023-08-11T15:38:41.227Z,57325.75
2023-08-11T15:41:08.251Z,57317.41
2023-08-11T15:43:35.041Z,57300.72
2023-08-11T15:46:02.125Z,57329.94
2023-08-11T15:48:30.152Z,57332.03
2023-08-11T15:50:57.381Z,57367.50
2023-08-11T15:53:24.148Z,57346.63
2023-08-11T15:55:51.177Z,57319.50
2023-08-11T15:58:17.994Z,57344.53
2023-08-11T16:00:44.777Z,57359.16
2023-08-11T16:03:11.648Z,57317.41
2023-08-11T16:05:38.452Z,57342.47
2023-08-11T16:08:05.676Z,57300.72
2023-08-11T16:10:37.390Z,57354.97
2023-08-11T16:13:04.546Z,57313.22
2023-08-11T16:15:32.277Z,57334.09
2023-08-11T16:17:59.140Z,57334.09
2023-08-11T16:20:25.881Z,57342.47
2023-08-11T16:22:53.261Z,57363.31
2023-08-11T16:25:20.280Z,57359.16
2023-08-11T16:27:47.262Z,57340.38
2023-08-11T16:30:14.214Z,57332.03
2023-08-11T16:32:40.987Z,57334.09
2023-08-11T16:35:09.164Z,57346.63
2023-08-11T16:37:36.113Z,57313.22
2023-08-11T16:40:03.915Z,57323.66
2023-08-11T16:42:30.658Z,57384.19
2023-08-11T16:44:57.363Z,57332.03
2023-08-11T16:47:24.409Z,57332.03
2023-08-11T16:49:51.788Z,57373.75
2023-08-11T16:52:18.481Z,57300.72
2023-08-11T16:54:45.292Z,57365.41
2023-08-11T16:57:13.160Z,57334.09
2023-08-11T16:59:40.328Z,57340.38
2023-08-11T17:02:07.204Z,57317.41
2023-08-11T17:04:34.096Z,57350.81
2023-08-11T17:07:01.073Z,57346.63
2023-08-11T17:09:27.788Z,57313.22
2023-08-11T17:11:54.572Z,57346.63
2023-08-11T17:14:21.605Z,57317.41
2023-08-11T17:16:48.426Z,57311.16
2023-08-11T17:19:15.192Z,57354.97
2023-08-11T17:21:43.350Z,57365.41
2023-08-11T17:24:10.204Z,57352.91
2023-08-11T17:26:39.338Z,57346.63
2023-08-11T17:29:06.035Z,57388.38
2023-08-11T17:31:34.022Z,57365.41
2023-08-11T17:34:01.236Z,57338.28
2023-08-11T17:36:29.033Z,57338.28
2023-08-11T17:39:00.165Z,57336.19
2023-08-11T17:41:27.706Z,57354.97
2023-08-11T17:43:55.076Z,57338.28
2023-08-11T17:46:22.157Z,57352.91
2023-08-11T17:48:51.277Z,57361.25
2023-08-11T17:51:18.036Z,57363.31
2023-08-11T17:53:49.740Z,57365.41
2023-08-11T17:56:25.348Z,57371.69
2023-08-11T17:58:55.437Z,57332.03
2023-08-11T18:01:24.233Z,57340.38
2023-08-11T18:03:50.938Z,57361.25
2023-08-11T18:06:17.833Z,57380.03
2023-08-11T18:08:44.571Z,57382.13
2023-08-11T18:11:11.280Z,57384.19
2023-08-11T18:13:40.593Z,57344.53
2023-08-11T18:16:08.350Z,57371.69
2023-08-11T18:18:35.262Z,57359.16
2023-08-11T18:21:05.169Z,57380.03
2023-08-11T18:23:42.009Z,57342.47
2023-08-11T18:26:08.725Z,57384.19
2023-08-11T18:28:37.316Z,57357.06
2023-08-11T18:31:05.347Z,57367.50
2023-08-11T18:33:32.093Z,57365.41
2023-08-11T18:35:58.924Z,57373.75
2023-08-11T18:38:25.680Z,57375.84
2023-08-11T18:40:52.932Z,57365.41
2023-08-11T18:43:20.039Z,57325.75
2023-08-11T18:45:46.903Z,57369.59
2023-08-11T18:48:14.366Z,57325.75
2023-08-11T18:50:41.227Z,57388.38
2023-08-11T18:53:08.160Z,57359.16
2023-08-11T18:55:34.818Z,57340.38
2023-08-11T18:58:01.671Z,57346.63
2023-08-11T19:00:28.555Z,57415.50
2023-08-11T19:02:55.374Z,57352.91
2023-08-11T19:05:22.216Z,57388.38
2023-08-11T19:07:48.943Z,57363.31
2023-08-11T19:10:15.784Z,57340.38
2023-08-11T19:12:42.527Z,57319.50
2023-08-11T19:15:09.803Z,57357.06
2023-08-11T19:17:36.806Z,57348.72
2023-08-11T19:20:03.992Z,57386.28
2023-08-11T19:22:31.192Z,57375.84
2023-08-11T19:24:57.917Z,57344.53
2023-08-11T19:27:26.454Z,57329.94
2023-08-11T19:29:55.701Z,57369.59
2023-08-11T19:32:22.544Z,57386.28
2023-08-11T19:34:50.561Z,57354.97
2023-08-11T19:37:17.322Z,57361.25
2023-08-11T19:39:44.181Z,57329.94
2023-08-11T19:42:11.093Z,57388.38
2023-08-11T19:44:38.657Z,57365.41
2023-08-11T19:47:05.617Z,57346.63
2023-08-11T19:49:32.667Z,57386.28
2023-08-11T19:51:59.515Z,57377.94
2023-08-11T19:54:26.228Z,57354.97
2023-08-11T19:56:54.266Z,57398.81
2023-08-11T19:59:21.150Z,57377.94
2023-08-11T20:01:48.118Z,57359.16
2023-08-11T20:04:20.105Z,57369.59
2023-08-11T20:06:47.021Z,57361.25
2023-08-11T20:09:15.501Z,57329.94
2023-08-11T20:11:42.205Z,57365.41
2023-08-11T20:14:08.970Z,57354.97
2023-08-11T20:16:35.673Z,57400.91
2023-08-11T20:19:02.401Z,57336.19
2023-08-11T20:21:29.121Z,57342.47
2023-08-11T20:23:55.838Z,57380.03
2023-08-11T20:26:22.547Z,57340.38
2023-08-11T20:28:49.377Z,57354.97
2023-08-11T20:31:16.202Z,57346.63
2023-08-11T20:33:43.033Z,57384.19
2023-08-11T20:36:10.072Z,57332.03
2023-08-11T20:38:38.872Z,57386.28
2023-08-11T20:41:06.174Z,57411.34
2023-08-11T20:43:32.942Z,57361.25
2023-08-11T20:46:00.905Z,57348.72
2023-08-11T20:48:27.857Z,57340.38
2023-08-11T20:51:03.265Z,57348.72
2023-08-11T20:53:30.436Z,57392.56
2023-08-11T20:56:00.657Z,57348.72
2023-08-11T20:58:28.456Z,57409.25
2023-08-11T21:00:55.838Z,57348.72
2023-08-11T21:03:22.640Z,57403.00
2023-08-11T21:05:49.338Z,57348.72
2023-08-11T21:08:17.226Z,57384.19
2023-08-11T21:10:47.820Z,57346.63
2023-08-11T21:13:15.045Z,57332.03
2023-08-11T21:15:42.491Z,57359.16
2023-08-11T21:18:10.790Z,57369.59
2023-08-11T21:20:37.922Z,57352.91
2023-08-11T21:23:05.472Z,57377.94
2023-08-11T21:25:33.403Z,57371.69
2023-08-11T21:28:00.378Z,57396.72
2023-08-11T21:30:27.183Z,57361.25
2023-08-11T21:32:54.092Z,57407.16
2023-08-11T21:35:21.287Z,57350.81
2023-08-11T21:37:48.471Z,57354.97
2023-08-11T21:40:15.257Z,57354.97
2023-08-11T21:42:42.714Z,57365.41
2023-08-11T21:45:10.424Z,57344.53
2023-08-11T21:47:37.286Z,57371.69
2023-08-11T21:50:04.177Z,57336.19
2023-08-11T21:52:31.250Z,57373.75
2023-08-11T21:54:58.172Z,57380.03
2023-08-11T21:57:25.009Z,57384.19
2023-08-11T21:59:51.853Z,57396.72
2023-08-11T22:02:18.689Z,57380.03
2023-08-11T22:04:48.610Z,57348.72
2023-08-11T22:07:15.968Z,57346.63
2023-08-11T22:09:43.014Z,57377.94
2023-08-11T22:12:13.387Z,57371.69
2023-08-11T22:14:40.593Z,57386.28
2023-08-11T22:17:07.293Z,57365.41
2023-08-11T22:19:36.717Z,57373.75
2023-08-11T22:22:06.252Z,57421.78
2023-08-11T22:24:41.260Z,57365.41
2023-08-11T22:27:10.812Z,57350.81
2023-08-11T22:29:38.014Z,57392.56
2023-08-11T22:32:05.422Z,57363.31
2023-08-11T22:34:32.643Z,57361.25
2023-08-11T22:36:59.345Z,57365.41
2023-08-11T22:39:26.013Z,57384.19
2023-08-11T22:41:52.701Z,57388.38
2023-08-11T22:44:19.441Z,57382.13
2023-08-11T22:46:46.188Z,57400.91
2023-08-11T22:49:12.930Z,57382.13
2023-08-11T22:51:39.657Z,57377.94
2023-08-11T22:54:06.427Z,57369.59
2023-08-11T22:56:33.196Z,57388.38
2023-08-11T22:59:00.079Z,57398.81
2023-08-11T23:01:26.768Z,57377.94
2023-08-11T23:03:53.554Z,57371.69
2023-08-11T23:06:20.866Z,57352.91
2023-08-11T23:08:47.633Z,57403.00
2023-08-11T23:11:14.403Z,57386.28
2023-08-11T23:13:41.071Z,57361.25
2023-08-11T23:16:07.989Z,57390.47
2023-08-11T23:18:34.830Z,57396.72
2023-08-11T23:21:01.581Z,57371.69
2023-08-11T23:23:28.322Z,57357.06
2023-08-11T23:25:55.920Z,57357.06
2023-08-11T23:28:22.718Z,57371.69
2023-08-11T23:30:49.407Z,57382.13
2023-08-11T23:33:16.488Z,57380.03
2023-08-11T23:35:43.344Z,57367.50
2023-08-11T23:38:11.945Z,57417.59
2023-08-11T23:40:38.984Z,57386.28
2023-08-11T23:43:05.855Z,57398.81
2023-08-11T23:45:32.982Z,57396.72
2023-08-11T23:47:59.872Z,57396.72
2023-08-11T23:50:27.923Z,57334.09
2023-08-11T23:52:54.646Z,57363.31
2023-08-11T23:55:21.537Z,57377.94
2023-08-11T23:57:48.699Z,57334.09
